createdAt,value
2023-04-18T00:00:38.521Z,564.00
2023-04-18T00:01:38.507Z,563.00
2023-04-18T00:02:38.723Z,563.00
2023-04-18T00:03:38.620Z,562.00
2023-04-18T00:04:38.662Z,561.00
2023-04-18T00:05:38.463Z,561.00
2023-04-18T00:06:38.483Z,563.00
2023-04-18T00:07:38.524Z,563.00
2023-04-18T00:08:38.562Z,561.00
2023-04-18T00:09:38.581Z,561.00
2023-04-18T00:10:38.583Z,561.00
2023-04-18T00:11:38.564Z,563.00
2023-04-18T00:12:38.594Z,563.00
2023-04-18T00:13:38.629Z,561.00
2023-04-18T00:14:38.663Z,561.00
2023-04-18T00:15:38.671Z,561.00
2023-04-18T00:16:38.702Z,562.00
2023-04-18T00:17:38.798Z,562.00
2023-04-18T00:18:38.729Z,563.00
2023-04-18T00:19:38.767Z,563.00
2023-04-18T00:20:38.865Z,562.00
2023-04-18T00:21:38.819Z,558.00
2023-04-18T00:22:38.819Z,557.00
2023-04-18T00:23:38.837Z,559.00
2023-04-18T00:24:38.862Z,561.00
2023-04-18T00:25:39.019Z,561.00
2023-04-18T00:26:38.899Z,561.00
2023-04-18T00:27:38.923Z,560.00
2023-04-18T00:28:38.982Z,560.00
2023-04-18T00:29:38.966Z,557.00
2023-04-18T00:30:38.990Z,558.00
2023-04-18T00:31:39.013Z,558.00
2023-04-18T00:32:39.046Z,560.00
2023-04-18T00:33:39.059Z,560.00
2023-04-18T00:34:39.065Z,559.00
2023-04-18T00:35:39.082Z,559.00
2023-04-18T00:36:39.093Z,558.00
2023-04-18T00:37:39.116Z,557.00
2023-04-18T00:38:39.134Z,558.00
2023-04-18T00:39:39.187Z,558.00
2023-04-18T00:40:39.205Z,558.00
2023-04-18T00:41:39.235Z,558.00
2023-04-18T00:42:39.219Z,559.00
2023-04-18T00:43:39.230Z,559.00
2023-04-18T00:44:39.256Z,561.00
2023-04-18T00:45:39.277Z,560.00
2023-04-18T00:46:39.371Z,562.00
2023-04-18T00:47:39.364Z,563.00
2023-04-18T00:48:39.356Z,562.00
2023-04-18T00:49:39.400Z,561.00
2023-04-18T00:50:39.378Z,562.00
2023-04-18T00:51:39.391Z,562.00
2023-04-18T00:52:39.455Z,564.00
2023-04-18T00:53:39.464Z,561.00
2023-04-18T00:54:39.493Z,561.00
2023-04-18T00:55:39.507Z,556.00
2023-04-18T00:56:39.521Z,553.00
2023-04-18T00:57:39.548Z,554.00
2023-04-18T00:58:39.557Z,555.00
2023-04-18T00:59:39.597Z,556.00
2023-04-18T01:00:39.618Z,557.00
2023-04-18T01:01:39.649Z,559.00
2023-04-18T01:02:39.800Z,559.00
2023-04-18T01:03:39.918Z,559.00
2023-04-18T01:04:39.776Z,561.00
2023-04-18T01:05:40.182Z,560.00
2023-04-18T01:06:39.724Z,558.00
2023-04-18T01:07:39.755Z,557.00
2023-04-18T01:08:39.786Z,558.00
2023-04-18T01:09:39.825Z,558.00
2023-04-18T01:10:39.818Z,559.00
2023-04-18T01:11:39.873Z,559.00
2023-04-18T01:12:39.881Z,558.00
2023-04-18T01:13:39.888Z,555.00
2023-04-18T01:14:39.946Z,554.00
2023-04-18T01:15:40.001Z,556.00
2023-04-18T01:16:39.970Z,556.00
2023-04-18T01:17:40.027Z,554.00
2023-04-18T01:18:40.009Z,552.00
2023-04-18T01:19:40.080Z,553.00
2023-04-18T01:20:40.052Z,556.00
2023-04-18T01:21:40.059Z,559.00
2023-04-18T01:22:40.109Z,559.00
2023-04-18T01:23:40.107Z,558.00
2023-04-18T01:24:40.129Z,559.00
2023-04-18T01:25:40.212Z,554.00
2023-04-18T01:26:40.187Z,555.00
2023-04-18T01:27:40.224Z,554.00
2023-04-18T01:28:40.225Z,556.00
2023-04-18T01:29:40.299Z,557.00
2023-04-18T01:30:40.268Z,558.00
2023-04-18T01:31:40.342Z,559.00
2023-04-18T01:32:40.457Z,557.00
2023-04-18T01:33:40.354Z,556.00
2023-04-18T01:34:40.426Z,557.00
2023-04-18T01:35:40.415Z,558.00
2023-04-18T01:36:40.417Z,559.00
2023-04-18T01:37:40.481Z,559.00
2023-04-18T01:38:40.463Z,558.00
2023-04-18T01:39:40.526Z,560.00
2023-04-18T01:40:40.531Z,559.00
2023-04-18T01:41:40.543Z,558.00
2023-04-18T01:42:40.598Z,558.00
2023-04-18T01:43:40.632Z,559.00
2023-04-18T01:44:40.613Z,559.00
2023-04-18T01:45:40.683Z,561.00
2023-04-18T01:46:40.767Z,564.00
2023-04-18T01:47:40.714Z,564.00
2023-04-18T01:48:40.731Z,561.00
2023-04-18T01:49:40.758Z,559.00
2023-04-18T01:50:40.779Z,560.00
2023-04-18T01:51:40.820Z,560.00
2023-04-18T01:52:40.820Z,557.00
2023-04-18T01:53:40.880Z,554.00
2023-04-18T01:54:40.878Z,551.00
2023-04-18T01:55:40.931Z,549.00
2023-04-18T01:56:40.955Z,554.00
2023-04-18T01:57:40.992Z,557.00
2023-04-18T01:58:40.981Z,558.00
2023-04-18T01:59:41.056Z,558.00
2023-04-18T02:00:41.145Z,558.00
2023-04-18T02:01:41.088Z,557.00
2023-04-18T02:02:41.210Z,556.00
2023-04-18T02:03:41.299Z,554.00
2023-04-18T02:04:41.136Z,556.00
2023-04-18T02:05:41.184Z,556.00
2023-04-18T02:06:41.188Z,556.00
2023-04-18T02:07:41.227Z,557.00
2023-04-18T02:08:41.267Z,557.00
2023-04-18T02:09:41.280Z,555.00
2023-04-18T02:10:41.352Z,555.00
2023-04-18T02:11:41.324Z,554.00
2023-04-18T02:12:41.356Z,552.00
2023-04-18T02:13:41.372Z,553.00
2023-04-18T02:14:41.427Z,555.00
2023-04-18T02:15:41.460Z,556.00
2023-04-18T02:16:41.544Z,556.00
2023-04-18T02:17:41.652Z,556.00
2023-04-18T02:18:41.521Z,555.00
2023-04-18T02:19:41.598Z,554.00
2023-04-18T02:20:41.589Z,553.00
2023-04-18T02:21:41.635Z,554.00
2023-04-18T02:22:41.672Z,555.00
2023-04-18T02:23:41.676Z,555.00
2023-04-18T02:24:41.715Z,556.00
2023-04-18T02:25:41.739Z,558.00
2023-04-18T02:26:41.812Z,560.00
2023-04-18T02:27:41.798Z,560.00
2023-04-18T02:28:41.827Z,558.00
2023-04-18T02:29:41.876Z,556.00
2023-04-18T02:30:41.885Z,555.00
2023-04-18T02:31:41.941Z,552.00
2023-04-18T02:32:41.984Z,550.00
2023-04-18T02:33:41.971Z,548.00
2023-04-18T02:34:41.999Z,549.00
2023-04-18T02:35:42.039Z,549.00
2023-04-18T02:36:42.040Z,549.00
2023-04-18T02:37:42.064Z,551.00
2023-04-18T02:38:42.150Z,550.00
2023-04-18T02:39:42.127Z,553.00
2023-04-18T02:40:42.179Z,552.00
2023-04-18T02:41:42.175Z,550.00
2023-04-18T02:42:42.189Z,553.00
2023-04-18T02:43:42.221Z,553.00
2023-04-18T02:44:42.258Z,552.00
2023-04-18T02:45:42.298Z,549.00
2023-04-18T02:46:42.328Z,550.00
2023-04-18T02:47:53.873Z,553.00
2023-04-18T02:48:43.321Z,556.00
2023-04-18T02:49:42.331Z,560.00
2023-04-18T02:50:42.302Z,559.00
2023-04-18T02:51:42.304Z,559.00
2023-04-18T02:52:42.316Z,557.00
2023-04-18T02:53:42.280Z,557.00
2023-04-18T02:54:42.301Z,553.00
2023-04-18T02:55:42.269Z,553.00
2023-04-18T02:56:42.274Z,552.00
2023-04-18T02:57:42.301Z,550.00
2023-04-18T02:58:42.246Z,546.00
2023-04-18T02:59:42.248Z,546.00
2023-04-18T03:00:42.227Z,550.00
2023-04-18T03:01:42.270Z,549.00
2023-04-18T03:02:42.323Z,547.00
2023-04-18T03:03:42.240Z,545.00
2023-04-18T03:04:42.279Z,546.00
2023-04-18T03:05:42.224Z,545.00
2023-04-18T03:06:42.337Z,546.00
2023-04-18T03:07:42.260Z,546.00
2023-04-18T03:08:42.292Z,548.00
2023-04-18T03:09:42.330Z,549.00
2023-04-18T03:10:42.363Z,550.00
2023-04-18T03:11:42.380Z,547.00
2023-04-18T03:12:42.412Z,550.00
2023-04-18T03:13:42.442Z,546.00
2023-04-18T03:14:42.478Z,542.00
2023-04-18T03:15:42.539Z,540.00
2023-04-18T03:16:42.524Z,540.00
2023-04-18T03:17:42.623Z,540.00
2023-04-18T03:18:42.589Z,540.00
2023-04-18T03:19:42.707Z,540.00
2023-04-18T03:20:42.662Z,541.00
2023-04-18T03:21:42.728Z,542.00
2023-04-18T03:22:42.754Z,540.00
2023-04-18T03:23:42.753Z,538.00
2023-04-18T03:24:42.834Z,539.00
2023-04-18T03:25:42.823Z,537.00
2023-04-18T03:26:42.930Z,536.00
2023-04-18T03:27:42.940Z,537.00
2023-04-18T03:28:43.017Z,538.00
2023-04-18T03:29:43.094Z,543.00
2023-04-18T03:30:43.149Z,543.00
2023-04-18T03:31:43.268Z,544.00
2023-04-18T03:32:43.284Z,545.00
2023-04-18T03:33:43.283Z,545.00
2023-04-18T03:34:43.335Z,542.00
2023-04-18T03:35:43.452Z,541.00
2023-04-18T03:36:44.515Z,538.00
2023-04-18T03:37:43.506Z,539.00
2023-04-18T03:38:43.592Z,538.00
2023-04-18T03:39:43.619Z,538.00
2023-04-18T03:40:43.659Z,538.00
2023-04-18T03:41:43.707Z,542.00
2023-04-18T03:42:43.731Z,541.00
2023-04-18T03:43:43.755Z,540.00
2023-04-18T03:44:43.843Z,541.00
2023-04-18T03:45:43.817Z,543.00
2023-04-18T03:46:43.960Z,544.00
2023-04-18T03:47:43.989Z,541.00
2023-04-18T03:48:43.948Z,538.00
2023-04-18T03:49:44.017Z,535.00
2023-04-18T03:50:44.030Z,536.00
2023-04-18T03:51:44.043Z,537.00
2023-04-18T03:52:44.136Z,538.00
2023-04-18T03:53:44.170Z,538.00
2023-04-18T03:54:44.205Z,543.00
2023-04-18T03:55:44.216Z,543.00
2023-04-18T03:56:44.247Z,545.00
2023-04-18T03:57:44.284Z,545.00
2023-04-18T03:58:44.346Z,544.00
2023-04-18T03:59:45.585Z,543.00
2023-04-18T04:00:44.383Z,542.00
2023-04-18T04:01:44.471Z,542.00
2023-04-18T04:02:44.577Z,539.00
2023-04-18T04:03:44.668Z,538.00
2023-04-18T04:04:44.609Z,540.00
2023-04-18T04:05:44.578Z,538.00
2023-04-18T04:06:44.640Z,540.00
2023-04-18T04:07:44.666Z,540.00
2023-04-18T04:08:44.676Z,541.00
2023-04-18T04:09:44.779Z,540.00
2023-04-18T04:10:44.751Z,539.00
2023-04-18T04:11:44.781Z,538.00
2023-04-18T04:12:44.846Z,539.00
2023-04-18T04:13:44.919Z,539.00
2023-04-18T04:14:44.894Z,541.00
2023-04-18T04:15:44.946Z,542.00
2023-04-18T04:16:45.083Z,541.00
2023-04-18T04:17:45.075Z,541.00
2023-04-18T04:18:45.054Z,540.00
2023-04-18T04:19:45.144Z,539.00
2023-04-18T04:20:45.158Z,538.00
2023-04-18T04:21:45.160Z,537.00
2023-04-18T04:22:45.198Z,538.00
2023-04-18T04:23:45.263Z,539.00
2023-04-18T04:24:45.290Z,540.00
2023-04-18T04:25:45.335Z,540.00
2023-04-18T04:26:45.364Z,541.00
2023-04-18T04:27:45.392Z,537.00
2023-04-18T04:28:45.444Z,537.00
2023-04-18T04:29:45.491Z,537.00
2023-04-18T04:30:45.567Z,537.00
2023-04-18T04:31:45.605Z,537.00
2023-04-18T04:32:45.701Z,536.00
2023-04-18T04:33:45.649Z,535.00
2023-04-18T04:34:45.675Z,537.00
2023-04-18T04:35:45.734Z,535.00
2023-04-18T04:36:45.748Z,534.00
2023-04-18T04:37:45.792Z,534.00
2023-04-18T04:38:45.834Z,532.00
2023-04-18T04:39:45.908Z,533.00
2023-04-18T04:40:45.913Z,532.00
2023-04-18T04:41:45.937Z,533.00
2023-04-18T04:42:45.976Z,533.00
2023-04-18T04:43:46.011Z,533.00
2023-04-18T04:44:46.075Z,534.00
2023-04-18T04:45:46.123Z,534.00
2023-04-18T04:46:46.125Z,537.00
2023-04-18T04:47:46.228Z,542.00
2023-04-18T04:48:46.199Z,544.00
2023-04-18T04:49:46.232Z,544.00
2023-04-18T04:50:46.279Z,544.00
2023-04-18T04:51:46.335Z,543.00
2023-04-18T04:52:46.342Z,546.00
2023-04-18T04:53:46.398Z,547.00
2023-04-18T04:54:46.427Z,546.00
2023-04-18T04:55:46.444Z,549.00
2023-04-18T04:56:46.497Z,549.00
2023-04-18T04:57:46.566Z,552.00
2023-04-18T04:58:46.551Z,552.00
2023-04-18T04:59:46.622Z,552.00
2023-04-18T05:00:46.649Z,549.00
2023-04-18T05:01:46.781Z,548.00
2023-04-18T05:02:46.865Z,550.00
2023-04-18T05:03:46.879Z,549.00
2023-04-18T05:04:46.814Z,548.00
2023-04-18T05:05:46.840Z,545.00
2023-04-18T05:06:46.871Z,548.00
2023-04-18T05:07:46.897Z,552.00
2023-04-18T05:08:46.944Z,551.00
2023-04-18T05:09:46.993Z,553.00
2023-04-18T05:10:47.008Z,552.00
2023-04-18T05:11:47.122Z,553.00
2023-04-18T05:12:47.119Z,552.00
2023-04-18T05:13:47.159Z,553.00
2023-04-18T05:14:47.158Z,553.00
2023-04-18T05:15:47.235Z,553.00
2023-04-18T05:16:47.245Z,555.00
2023-04-18T05:17:47.321Z,558.00
2023-04-18T05:18:47.320Z,556.00
2023-04-18T05:19:47.369Z,558.00
2023-04-18T05:20:47.416Z,559.00
2023-04-18T05:21:47.449Z,561.00
2023-04-18T05:22:47.809Z,559.00
2023-04-18T05:23:47.534Z,559.00
2023-04-18T05:24:47.593Z,559.00
2023-04-18T05:25:47.632Z,555.00
2023-04-18T05:26:47.686Z,549.00
2023-04-18T05:27:47.827Z,547.00
2023-04-18T05:28:47.759Z,548.00
2023-04-18T05:29:47.817Z,550.00
2023-04-18T05:30:47.912Z,549.00
2023-04-18T05:31:47.855Z,550.00
2023-04-18T05:32:47.933Z,552.00
2023-04-18T05:33:47.898Z,552.00
2023-04-18T05:34:48.348Z,556.00
2023-04-18T05:35:48.156Z,573.00
2023-04-18T05:36:47.940Z,584.00
2023-04-18T05:37:48.083Z,643.00
2023-04-18T05:38:47.994Z,688.00
2023-04-18T05:39:48.315Z,721.00
2023-04-18T05:40:48.027Z,761.00
2023-04-18T05:41:47.962Z,841.00
2023-04-18T05:42:48.334Z,850.00
2023-04-18T05:43:58.194Z,881.00
2023-04-18T05:44:49.341Z,898.00
2023-04-18T05:45:48.124Z,914.00
2023-04-18T05:46:48.186Z,931.00
2023-04-18T05:47:48.086Z,976.00
2023-04-18T05:48:48.047Z,998.00
2023-04-18T05:49:48.349Z,1016.00
2023-04-18T05:50:48.072Z,1054.00
2023-04-18T05:51:48.004Z,1098.00
2023-04-18T05:52:47.995Z,1108.00
2023-04-18T05:53:48.306Z,1120.00
2023-04-18T05:54:48.030Z,1131.00
2023-04-18T05:55:48.002Z,1157.00
2023-04-18T05:56:48.004Z,1180.00
2023-04-18T05:57:48.043Z,1206.00
2023-04-18T05:58:48.053Z,1232.00
2023-04-18T05:59:48.078Z,1256.00
2023-04-18T06:00:48.138Z,1277.00
2023-04-18T06:01:48.113Z,1295.00
2023-04-18T06:02:48.265Z,1310.00
2023-04-18T06:03:48.318Z,1326.00
2023-04-18T06:04:48.283Z,1341.00
2023-04-18T06:05:48.226Z,1359.00
2023-04-18T06:06:48.191Z,1381.00
2023-04-18T06:07:48.201Z,1399.00
2023-04-18T06:08:48.236Z,1414.00
2023-04-18T06:09:48.238Z,1429.00
2023-04-18T06:10:48.244Z,1451.00
2023-04-18T06:11:48.208Z,1479.00
2023-04-18T06:12:48.245Z,1499.00
2023-04-18T06:13:48.368Z,1505.00
2023-04-18T06:14:48.239Z,1525.00
2023-04-18T06:15:48.270Z,1551.00
2023-04-18T06:16:48.209Z,1557.00
2023-04-18T06:17:48.263Z,1567.00
2023-04-18T06:18:48.224Z,1587.00
2023-04-18T06:19:48.210Z,1608.00
2023-04-18T06:20:48.207Z,1641.00
2023-04-18T06:21:48.288Z,1675.00
2023-04-18T06:22:48.297Z,1698.00
2023-04-18T06:23:48.229Z,1736.00
2023-04-18T06:24:48.282Z,1743.00
2023-04-18T06:25:48.357Z,1748.00
2023-04-18T06:26:49.048Z,1760.00
2023-04-18T06:27:48.322Z,1769.00
2023-04-18T06:28:48.434Z,1784.00
2023-04-18T06:29:48.454Z,1879.00
2023-04-18T06:30:48.455Z,1887.00
2023-04-18T06:31:48.544Z,1894.00
2023-04-18T06:32:48.573Z,1907.00
2023-04-18T06:33:48.543Z,1925.00
2023-04-18T06:34:48.597Z,1936.00
2023-04-18T06:35:48.642Z,1962.00
2023-04-18T06:36:48.669Z,1978.00
2023-04-18T06:37:48.736Z,1992.00
2023-04-18T06:38:48.861Z,1913.00
2023-04-18T06:39:48.856Z,1522.00
2023-04-18T06:40:49.350Z,1405.00
2023-04-18T06:41:49.351Z,1380.00
2023-04-18T06:42:48.866Z,1345.00
2023-04-18T06:44:02.160Z,1235.00
2023-04-18T06:44:49.908Z,1156.00
2023-04-18T06:45:49.404Z,1131.00
2023-04-18T06:46:48.870Z,1115.00
2023-04-18T06:47:49.016Z,1048.00
2023-04-18T06:48:49.873Z,1032.00
2023-04-18T06:49:49.068Z,981.00
2023-04-18T06:50:49.337Z,979.00
2023-04-18T06:51:49.206Z,1073.00
2023-04-18T06:52:49.187Z,1093.00
2023-04-18T06:53:49.252Z,1103.00
2023-04-18T06:54:49.292Z,1143.00
2023-04-18T06:55:49.339Z,1189.00
2023-04-18T06:56:49.388Z,1202.00
2023-04-18T06:57:49.439Z,1206.00
2023-04-18T06:58:49.508Z,1209.00
2023-04-18T06:59:49.494Z,1214.00
2023-04-18T07:00:49.920Z,1219.00
2023-04-18T07:01:49.559Z,1226.00
2023-04-18T07:02:49.694Z,1231.00
2023-04-18T07:03:50.442Z,1254.00
2023-04-18T07:04:49.644Z,1275.00
2023-04-18T07:05:49.859Z,1295.00
2023-04-18T07:06:49.636Z,1307.00
2023-04-18T07:07:49.681Z,1322.00
2023-04-18T07:08:49.666Z,1338.00
2023-04-18T07:09:49.639Z,1357.00
2023-04-18T07:10:49.648Z,1368.00
2023-04-18T07:11:49.674Z,1386.00
2023-04-18T07:12:49.640Z,1401.00
2023-04-18T07:13:49.640Z,1411.00
2023-04-18T07:14:49.648Z,1424.00
2023-04-18T07:15:49.687Z,1436.00
2023-04-18T07:16:49.729Z,1449.00
2023-04-18T07:17:49.787Z,1454.00
2023-04-18T07:18:49.798Z,1453.00
2023-04-18T07:19:49.794Z,1462.00
2023-04-18T07:20:49.848Z,1470.00
2023-04-18T07:21:49.918Z,1481.00
2023-04-18T07:22:49.936Z,1489.00
2023-04-18T07:23:49.998Z,1501.00
2023-04-18T07:24:50.059Z,1505.00
2023-04-18T07:25:50.116Z,1517.00
2023-04-18T07:26:50.208Z,1522.00
2023-04-18T07:27:50.243Z,1528.00
2023-04-18T07:28:50.357Z,1540.00
2023-04-18T07:29:50.430Z,1552.00
2023-04-18T07:30:50.491Z,1554.00
2023-04-18T07:31:50.523Z,1555.00
2023-04-18T07:32:50.625Z,1561.00
2023-04-18T07:33:50.900Z,1576.00
2023-04-18T07:34:50.603Z,1582.00
2023-04-18T07:35:50.680Z,1606.00
2023-04-18T07:36:50.703Z,1629.00
2023-04-18T07:37:50.758Z,1614.00
2023-04-18T07:38:50.901Z,1604.00
2023-04-18T07:39:50.809Z,1621.00
2023-04-18T07:40:50.811Z,1640.00
2023-04-18T07:41:50.826Z,1643.00
2023-04-18T07:42:50.862Z,1649.00
2023-04-18T07:43:50.954Z,1654.00
2023-04-18T07:44:51.001Z,1676.00
2023-04-18T07:45:51.110Z,1707.00
2023-04-18T07:46:51.858Z,1722.00
2023-04-18T07:47:51.221Z,1736.00
2023-04-18T07:48:51.239Z,1752.00
2023-04-18T07:49:51.399Z,1760.00
2023-04-18T07:50:51.380Z,1771.00
2023-04-18T07:51:51.389Z,1793.00
2023-04-18T07:52:51.444Z,1798.00
2023-04-18T07:53:51.518Z,1808.00
2023-04-18T07:54:51.521Z,1816.00
2023-04-18T07:55:51.957Z,1878.00
2023-04-18T07:56:51.640Z,1882.00
2023-04-18T07:57:51.684Z,1877.00
2023-04-18T07:58:51.712Z,1874.00
2023-04-18T07:59:51.883Z,1973.00
2023-04-18T08:00:51.887Z,1986.00
2023-04-18T08:01:51.959Z,1965.00
2023-04-18T08:02:52.033Z,1964.00
2023-04-18T08:03:52.225Z,1963.00
2023-04-18T08:04:52.348Z,1977.00
2023-04-18T08:05:52.043Z,1987.00
2023-04-18T08:06:52.797Z,1993.00
2023-04-18T08:07:52.123Z,1995.00
2023-04-18T08:08:52.145Z,1998.00
2023-04-18T08:09:52.216Z,2004.00
2023-04-18T08:10:52.228Z,2059.00
2023-04-18T08:11:52.255Z,2066.00
2023-04-18T08:12:52.315Z,2066.00
2023-04-18T08:13:52.344Z,2086.00
2023-04-18T08:14:52.386Z,2096.00
2023-04-18T08:15:52.431Z,2110.00
2023-04-18T08:16:52.446Z,2119.00
2023-04-18T08:17:52.510Z,2130.00
2023-04-18T08:18:52.529Z,2129.00
2023-04-18T08:19:52.533Z,2130.00
2023-04-18T08:20:52.606Z,2154.00
2023-04-18T08:21:52.577Z,2195.00
2023-04-18T08:23:05.609Z,2207.00
2023-04-18T08:23:53.606Z,2220.00
2023-04-18T08:25:04.317Z,1901.00
2023-04-18T08:25:53.906Z,1962.00
2023-04-18T08:26:52.576Z,1973.00
2023-04-18T08:27:52.583Z,1972.00
2023-04-18T08:28:52.560Z,1868.00
2023-04-18T08:29:52.589Z,1582.00
2023-04-18T08:30:53.418Z,1565.00
2023-04-18T08:31:52.618Z,1503.00
2023-04-18T08:32:52.714Z,1648.00
2023-04-18T08:33:52.567Z,1649.00
2023-04-18T08:34:52.916Z,1354.00
2023-04-18T08:35:52.538Z,1529.00
2023-04-18T08:36:52.549Z,1441.00
2023-04-18T08:37:52.540Z,1313.00
2023-04-18T08:38:52.583Z,1323.00
2023-04-18T08:39:52.902Z,1360.00
2023-04-18T08:40:52.924Z,1215.00
2023-04-18T08:41:52.714Z,1182.00
2023-04-18T08:42:52.810Z,1122.00
2023-04-18T08:43:53.440Z,1096.00
2023-04-18T08:44:52.947Z,1073.00
2023-04-18T08:45:52.935Z,1060.00
2023-04-18T08:46:53.423Z,1053.00
2023-04-18T08:47:53.125Z,1054.00
2023-04-18T08:48:53.013Z,1043.00
2023-04-18T08:49:52.983Z,1002.00
2023-04-18T08:50:53.424Z,974.00
2023-04-18T08:51:52.969Z,968.00
2023-04-18T08:52:52.982Z,984.00
2023-04-18T08:53:53.043Z,910.00
2023-04-18T08:54:53.419Z,934.00
2023-04-18T08:55:53.416Z,902.00
2023-04-18T08:56:53.063Z,802.00
2023-04-18T08:57:53.093Z,886.00
2023-04-18T08:58:53.062Z,863.00
2023-04-18T08:59:53.434Z,860.00
2023-04-18T09:00:53.082Z,827.00
2023-04-18T09:01:53.132Z,777.00
2023-04-18T09:02:53.174Z,767.00
2023-04-18T09:03:53.146Z,721.00
2023-04-18T09:04:53.075Z,708.00
2023-04-18T09:05:53.058Z,706.00
2023-04-18T09:06:53.075Z,700.00
2023-04-18T09:07:53.048Z,691.00
2023-04-18T09:08:53.063Z,698.00
2023-04-18T09:09:53.058Z,691.00
2023-04-18T09:10:53.088Z,675.00
2023-04-18T09:11:53.087Z,648.00
2023-04-18T09:12:53.056Z,638.00
2023-04-18T09:13:53.046Z,624.00
2023-04-18T09:14:53.062Z,610.00
2023-04-18T09:15:53.114Z,605.00
2023-04-18T09:16:53.071Z,599.00
2023-04-18T09:17:53.122Z,596.00
2023-04-18T09:18:53.065Z,590.00
2023-04-18T09:19:53.088Z,585.00
2023-04-18T09:20:53.462Z,579.00
2023-04-18T09:21:53.490Z,567.00
2023-04-18T09:22:53.103Z,553.00
2023-04-18T09:23:53.109Z,547.00
2023-04-18T09:24:53.109Z,547.00
2023-04-18T09:25:53.119Z,545.00
2023-04-18T09:26:53.199Z,539.00
2023-04-18T09:27:53.138Z,539.00
2023-04-18T09:28:53.966Z,538.00
2023-04-18T09:29:53.807Z,527.00
2023-04-18T09:30:53.463Z,519.00
2023-04-18T09:31:53.149Z,513.00
2023-04-18T09:32:53.194Z,514.00
2023-04-18T09:33:53.198Z,511.00
2023-04-18T09:34:53.242Z,509.00
2023-04-18T09:35:53.433Z,505.00
2023-04-18T09:36:53.365Z,499.00
2023-04-18T09:37:53.326Z,498.00
2023-04-18T09:38:56.203Z,492.00
2023-04-18T09:39:53.415Z,487.00
2023-04-18T09:40:53.345Z,486.00
2023-04-18T09:41:53.352Z,485.00
2023-04-18T09:42:53.342Z,483.00
2023-04-18T09:43:53.334Z,480.00
2023-04-18T09:44:54.575Z,477.00
2023-04-18T09:45:53.481Z,473.00
2023-04-18T09:46:53.304Z,474.00
2023-04-18T09:47:53.388Z,472.00
2023-04-18T09:48:53.313Z,470.00
2023-04-18T09:49:53.297Z,467.00
2023-04-18T09:50:53.452Z,466.00
2023-04-18T09:51:53.423Z,463.00
2023-04-18T09:52:53.257Z,459.00
2023-04-18T09:53:53.313Z,458.00
2023-04-18T09:54:53.260Z,454.00
2023-04-18T09:55:54.869Z,454.00
2023-04-18T09:56:53.267Z,451.00
2023-04-18T09:57:53.234Z,449.00
2023-04-18T09:58:53.244Z,449.00
2023-04-18T09:59:53.239Z,449.00
2023-04-18T10:00:53.234Z,446.00
2023-04-18T10:01:53.301Z,443.00
2023-04-18T10:02:53.340Z,442.00
2023-04-18T10:03:53.244Z,444.00
2023-04-18T10:04:53.270Z,442.00
2023-04-18T10:05:53.179Z,439.00
2023-04-18T10:06:53.998Z,437.00
2023-04-18T10:07:53.160Z,431.00
2023-04-18T10:08:53.164Z,433.00
2023-04-18T10:09:53.155Z,433.00
2023-04-18T10:10:53.153Z,432.00
2023-04-18T10:11:53.148Z,431.00
2023-04-18T10:12:53.141Z,433.00
2023-04-18T10:13:53.148Z,433.00
2023-04-18T10:14:53.201Z,432.00
2023-04-18T10:15:53.152Z,431.00
2023-04-18T10:16:53.094Z,429.00
2023-04-18T10:18:03.337Z,430.00
2023-04-18T10:18:54.082Z,428.00
2023-04-18T10:19:53.069Z,424.00
2023-04-18T10:20:53.102Z,426.00
2023-04-18T10:21:53.093Z,425.00
2023-04-18T10:22:53.059Z,424.00
2023-04-18T10:23:53.057Z,423.00
2023-04-18T10:24:53.117Z,425.00
2023-04-18T10:25:53.083Z,424.00
2023-04-18T10:26:53.453Z,421.00
2023-04-18T10:27:53.093Z,421.00
2023-04-18T10:28:53.343Z,442.00
2023-04-18T10:29:53.115Z,472.00
2023-04-18T10:30:53.080Z,560.00
2023-04-18T10:31:53.589Z,579.00
2023-04-18T10:32:53.219Z,653.00
2023-04-18T10:34:03.795Z,690.00
2023-04-18T10:34:54.172Z,704.00
2023-04-18T10:35:53.158Z,754.00
2023-04-18T10:36:53.142Z,794.00
2023-04-18T10:37:53.144Z,811.00
2023-04-18T10:38:53.157Z,801.00
2023-04-18T10:39:53.152Z,810.00
2023-04-18T10:40:53.137Z,905.00
2023-04-18T10:41:53.120Z,928.00
2023-04-18T10:42:53.115Z,941.00
2023-04-18T10:43:53.106Z,954.00
2023-04-18T10:44:53.127Z,989.00
2023-04-18T10:45:53.097Z,1007.00
2023-04-18T10:46:53.228Z,1025.00
2023-04-18T10:47:53.162Z,1042.00
2023-04-18T10:48:53.085Z,1058.00
2023-04-18T10:49:53.148Z,1082.00
2023-04-18T10:50:53.218Z,1102.00
2023-04-18T10:51:53.420Z,1127.00
2023-04-18T10:52:53.307Z,1146.00
2023-04-18T10:53:53.358Z,1160.00
2023-04-18T10:54:53.394Z,1197.00
2023-04-18T10:55:53.491Z,1211.00
2023-04-18T10:56:53.586Z,1247.00
2023-04-18T10:57:53.528Z,1283.00
2023-04-18T10:58:53.562Z,1299.00
2023-04-18T10:59:53.685Z,1310.00
2023-04-18T11:00:53.647Z,1325.00
2023-04-18T11:01:53.677Z,1339.00
2023-04-18T11:02:53.878Z,1357.00
2023-04-18T11:03:53.855Z,1424.00
2023-04-18T11:04:53.785Z,1420.00
2023-04-18T11:05:53.859Z,1430.00
2023-04-18T11:06:53.832Z,1438.00
2023-04-18T11:07:53.894Z,1466.00
2023-04-18T11:08:53.906Z,1494.00
2023-04-18T11:09:53.976Z,1524.00
2023-04-18T11:10:53.985Z,1544.00
2023-04-18T11:11:54.057Z,1565.00
2023-04-18T11:12:54.064Z,1594.00
2023-04-18T11:13:54.116Z,1618.00
2023-04-18T11:14:54.122Z,1619.00
2023-04-18T11:15:54.171Z,1695.00
2023-04-18T11:16:54.455Z,1431.00
2023-04-18T11:17:54.326Z,1623.00
2023-04-18T11:18:54.255Z,1736.00
2023-04-18T11:19:54.321Z,1738.00
2023-04-18T11:20:54.396Z,1651.00
2023-04-18T11:21:54.463Z,1639.00
2023-04-18T11:22:54.434Z,1645.00
2023-04-18T11:23:54.449Z,1641.00
2023-04-18T11:24:54.483Z,1628.00
2023-04-18T11:25:54.504Z,1628.00
2023-04-18T11:26:55.471Z,1621.00
2023-04-18T11:27:54.562Z,1615.00
2023-04-18T11:28:54.612Z,1610.00
2023-04-18T11:29:54.645Z,1605.00
2023-04-18T11:30:54.737Z,1605.00
2023-04-18T11:31:57.734Z,1598.00
2023-04-18T11:32:54.716Z,1592.00
2023-04-18T11:33:54.714Z,1584.00
2023-04-18T11:34:54.704Z,1581.00
2023-04-18T11:35:54.687Z,1570.00
2023-04-18T11:36:54.673Z,1564.00
2023-04-18T11:37:54.676Z,1562.00
2023-04-18T11:38:54.657Z,1556.00
2023-04-18T11:39:54.667Z,1552.00
2023-04-18T11:40:54.669Z,1550.00
2023-04-18T11:41:54.649Z,1541.00
2023-04-18T11:42:54.665Z,1534.00
2023-04-18T11:43:54.651Z,1526.00
2023-04-18T11:44:54.631Z,1519.00
2023-04-18T11:45:54.690Z,1510.00
2023-04-18T11:46:54.630Z,1508.00
2023-04-18T11:47:54.606Z,1501.00
2023-04-18T11:48:54.605Z,1489.00
2023-04-18T11:49:56.900Z,1483.00
2023-04-18T11:50:54.693Z,1477.00
2023-04-18T11:51:54.758Z,1475.00
2023-04-18T11:52:54.829Z,1469.00
2023-04-18T11:53:54.888Z,1459.00
2023-04-18T11:54:54.967Z,1456.00
2023-04-18T11:55:54.949Z,1452.00
2023-04-18T11:56:55.008Z,1446.00
2023-04-18T11:57:55.055Z,1443.00
2023-04-18T11:58:55.101Z,1440.00
2023-04-18T11:59:55.159Z,1437.00
2023-04-18T12:00:55.200Z,1428.00
2023-04-18T12:01:58.608Z,1423.00
2023-04-18T12:02:55.381Z,1422.00
2023-04-18T12:03:55.388Z,1416.00
2023-04-18T12:04:55.775Z,1400.00
2023-04-18T12:05:55.381Z,1390.00
2023-04-18T12:06:55.234Z,1386.00
2023-04-18T12:07:55.242Z,1370.00
2023-04-18T12:08:55.228Z,1363.00
2023-04-18T12:09:55.238Z,1365.00
2023-04-18T12:10:55.204Z,1370.00
2023-04-18T12:11:55.231Z,1362.00
2023-04-18T12:12:55.289Z,1355.00
2023-04-18T12:13:55.226Z,1340.00
2023-04-18T12:14:55.189Z,1333.00
2023-04-18T12:15:55.232Z,1329.00
2023-04-18T12:16:55.212Z,1330.00
2023-04-18T12:17:55.203Z,1328.00
2023-04-18T12:18:55.186Z,1319.00
2023-04-18T12:19:55.137Z,1312.00